createdAt,value
2023-04-29T00:01:35.325Z,11.90
2023-04-29T00:04:02.753Z,11.90
2023-04-29T00:06:30.757Z,11.90
2023-04-29T00:08:58.065Z,11.90
2023-04-29T00:11:27.620Z,11.80
2023-04-29T00:13:54.438Z,11.80
2023-04-29T00:16:21.493Z,11.80
2023-04-29T00:18:48.341Z,11.70
2023-04-29T00:21:15.858Z,11.70
2023-04-29T00:23:42.909Z,11.70
2023-04-29T00:26:09.786Z,11.60
2023-04-29T00:28:37.064Z,11.60
2023-04-29T00:31:04.189Z,11.60
2023-04-29T00:33:31.267Z,11.60
2023-04-29T00:35:58.084Z,11.60
2023-04-29T00:38:25.182Z,11.50
2023-04-29T00:40:52.403Z,11.50
2023-04-29T00:43:20.099Z,11.40
2023-04-29T00:45:47.079Z,11.40
2023-04-29T00:48:15.492Z,11.30
2023-04-29T00:50:42.578Z,11.30
2023-04-29T00:53:12.943Z,11.30
2023-04-29T00:55:41.345Z,11.30
2023-04-29T00:58:10.215Z,11.30
2023-04-29T01:00:38.204Z,11.30
2023-04-29T01:03:09.320Z,11.20
2023-04-29T01:05:36.715Z,11.10
2023-04-29T01:08:48.319Z,11.10
2023-04-29T01:11:19.921Z,11.10
2023-04-29T01:13:50.755Z,11.10
2023-04-29T01:16:47.482Z,11.10
2023-04-29T01:19:26.985Z,11.10
2023-04-29T01:21:54.034Z,11.10
2023-04-29T01:24:20.765Z,11.10
2023-04-29T01:27:03.629Z,11.10
2023-04-29T01:29:52.990Z,11.00
2023-04-29T01:32:33.345Z,11.00
2023-04-29T01:35:28.172Z,11.00
2023-04-29T01:38:10.367Z,11.00
2023-04-29T01:41:00.681Z,11.00
2023-04-29T01:43:33.014Z,11.00
2023-04-29T01:46:00.726Z,10.90
2023-04-29T01:48:28.413Z,10.90
2023-04-29T01:50:55.175Z,10.90
2023-04-29T01:53:21.986Z,10.90
2023-04-29T01:55:49.224Z,10.80
2023-04-29T01:58:15.977Z,10.80
2023-04-29T02:00:42.818Z,10.80
2023-04-29T02:03:10.562Z,10.80
2023-04-29T02:05:37.471Z,10.70
2023-04-29T02:08:04.690Z,10.70
2023-04-29T02:10:31.597Z,10.80
2023-04-29T02:12:58.355Z,10.70
2023-04-29T02:15:29.568Z,10.70
2023-04-29T02:17:56.479Z,10.70
2023-04-29T02:20:23.612Z,10.60
2023-04-29T02:22:50.604Z,10.60
2023-04-29T02:25:17.481Z,10.60
2023-04-29T02:27:44.430Z,10.50
2023-04-29T02:30:11.707Z,10.60
2023-04-29T02:32:39.478Z,10.60
2023-04-29T02:35:07.774Z,10.60
2023-04-29T02:37:35.024Z,10.60
2023-04-29T02:40:03.628Z,10.40
2023-04-29T02:42:30.976Z,10.40
2023-04-29T02:44:58.038Z,10.40
2023-04-29T02:47:25.044Z,10.40
2023-04-29T02:49:52.506Z,10.30
2023-04-29T02:52:19.436Z,10.40
2023-04-29T02:54:46.702Z,10.40
2023-04-29T02:57:13.977Z,10.40
2023-04-29T02:59:40.777Z,10.30
2023-04-29T03:02:07.631Z,10.30
2023-04-29T03:04:34.701Z,10.30
2023-04-29T03:07:04.875Z,10.30
2023-04-29T03:09:32.001Z,10.20
2023-04-29T03:11:59.243Z,10.20
2023-04-29T03:14:26.414Z,10.20
2023-04-29T03:16:53.593Z,10.20
2023-04-29T03:19:20.760Z,10.20
2023-04-29T03:21:47.559Z,10.20
2023-04-29T03:24:17.055Z,10.20
2023-04-29T03:26:44.025Z,10.20
2023-04-29T03:29:10.806Z,10.20
2023-04-29T03:31:37.849Z,10.20
2023-04-29T03:34:04.850Z,10.20
2023-04-29T03:36:31.590Z,10.20
2023-04-29T03:38:58.629Z,10.10
2023-04-29T03:41:25.755Z,10.10
2023-04-29T03:43:52.769Z,10.10
2023-04-29T03:46:19.654Z,10.10
2023-04-29T03:48:46.626Z,10.20
2023-04-29T03:51:13.649Z,10.20
2023-04-29T03:53:40.708Z,10.10
2023-04-29T03:56:08.222Z,10.10
2023-04-29T03:58:35.592Z,10.10
2023-04-29T04:01:03.130Z,10.10
2023-04-29T04:03:30.982Z,10.10
2023-04-29T04:05:58.511Z,10.10
2023-04-29T04:08:25.452Z,10.20
2023-04-29T04:10:52.413Z,10.20
2023-04-29T04:13:19.453Z,10.10
2023-04-29T04:15:51.383Z,10.20
2023-04-29T04:18:18.732Z,10.10
2023-04-29T04:20:45.732Z,10.20
2023-04-29T04:23:12.852Z,10.20
2023-04-29T04:25:48.467Z,10.10
2023-04-29T04:28:15.812Z,10.10
2023-04-29T04:30:43.023Z,10.10
2023-04-29T04:33:10.966Z,10.10
2023-04-29T04:35:38.074Z,10.10
2023-04-29T04:38:05.485Z,10.00
2023-04-29T04:40:32.893Z,10.00
2023-04-29T04:42:59.864Z,10.00
2023-04-29T04:45:29.894Z,10.00
2023-04-29T04:47:57.243Z,10.00
2023-04-29T04:50:24.431Z,10.00
2023-04-29T04:52:51.548Z,10.00
2023-04-29T04:55:18.630Z,10.00
2023-04-29T04:57:45.593Z,10.00
2023-04-29T05:00:12.984Z,10.00
2023-04-29T05:02:40.255Z,10.00
2023-04-29T05:05:07.565Z,10.00
2023-04-29T05:07:37.206Z,10.00
2023-04-29T05:10:04.549Z,9.90
2023-04-29T05:12:31.829Z,10.00
2023-04-29T05:15:01.317Z,9.90
2023-04-29T05:17:28.274Z,9.90
2023-04-29T05:19:55.462Z,9.90
2023-04-29T05:22:22.776Z,9.90
2023-04-29T05:24:49.519Z,10.00
2023-04-29T05:27:16.616Z,10.00
2023-04-29T05:29:44.070Z,9.90
2023-04-29T05:32:11.453Z,9.90
2023-04-29T05:34:38.215Z,9.90
2023-04-29T05:37:07.793Z,9.90
2023-04-29T05:39:34.607Z,10.00
2023-04-29T05:42:02.269Z,9.90
2023-04-29T05:44:29.298Z,9.90
2023-04-29T05:46:56.178Z,9.90
2023-04-29T05:49:23.069Z,9.90
2023-04-29T05:51:50.036Z,9.90
2023-04-29T05:54:16.913Z,9.80
2023-04-29T05:56:43.921Z,9.80
2023-04-29T05:59:11.480Z,9.80
2023-04-29T06:01:38.955Z,9.80
2023-04-29T06:04:06.396Z,9.80
2023-04-29T06:06:33.584Z,9.80
2023-04-29T06:09:01.023Z,9.80
2023-04-29T06:11:28.138Z,9.90
2023-04-29T06:13:54.926Z,9.80
2023-04-29T06:16:22.133Z,9.80
2023-04-29T06:18:49.105Z,9.90
2023-04-29T06:21:16.286Z,9.90
2023-04-29T06:23:43.130Z,9.90
2023-04-29T06:26:10.273Z,10.00
2023-04-29T06:28:37.481Z,9.90
2023-04-29T06:31:04.417Z,10.00
2023-04-29T06:33:33.867Z,9.90
2023-04-29T06:36:00.888Z,10.00
2023-04-29T06:38:27.630Z,10.00
2023-04-29T06:40:55.465Z,10.00
2023-04-29T06:43:22.233Z,10.00
2023-04-29T06:45:49.367Z,10.00
2023-04-29T06:48:16.787Z,10.10
2023-04-29T06:50:54.867Z,10.10
2023-04-29T06:53:22.768Z,10.30
2023-04-29T06:55:49.833Z,10.30
2023-04-29T06:58:17.431Z,10.40
2023-04-29T07:00:46.609Z,10.30
2023-04-29T07:03:13.878Z,10.30
2023-04-29T07:05:42.133Z,10.30
2023-04-29T07:08:10.553Z,10.30
2023-04-29T07:10:37.459Z,10.40
2023-04-29T07:13:04.589Z,10.50
2023-04-29T07:15:34.984Z,10.50
2023-04-29T07:18:03.348Z,10.50
2023-04-29T07:20:30.748Z,10.60
2023-04-29T07:22:58.152Z,10.70
2023-04-29T07:25:27.393Z,10.70
2023-04-29T07:27:54.160Z,10.90
2023-04-29T07:30:21.532Z,11.00
2023-04-29T07:32:48.464Z,11.00
2023-04-29T07:35:15.399Z,11.20
2023-04-29T07:37:44.174Z,11.30
2023-04-29T07:40:11.726Z,11.30
2023-04-29T07:42:38.511Z,11.20
2023-04-29T07:45:06.192Z,11.20
2023-04-29T07:47:33.428Z,11.10
2023-04-29T07:50:00.338Z,11.20
2023-04-29T07:52:27.669Z,11.30
2023-04-29T07:54:57.320Z,11.30
2023-04-29T07:57:24.195Z,11.40
2023-04-29T07:59:55.057Z,11.70
2023-04-29T08:02:22.694Z,11.60
2023-04-29T08:04:51.481Z,11.50
2023-04-29T08:07:20.216Z,11.40
2023-04-29T08:09:47.284Z,11.40
2023-04-29T08:12:14.050Z,11.30
2023-04-29T08:14:41.095Z,11.40
2023-04-29T08:17:08.821Z,11.40
2023-04-29T08:19:35.952Z,11.40
2023-04-29T08:22:04.434Z,11.40
2023-04-29T08:24:33.529Z,11.40
2023-04-29T08:27:00.722Z,11.40
2023-04-29T08:29:28.071Z,11.50
2023-04-29T08:31:55.439Z,11.50
2023-04-29T08:34:22.325Z,11.30
2023-04-29T08:36:49.229Z,11.40
2023-04-29T08:39:16.125Z,11.50
2023-04-29T08:41:45.839Z,11.40
2023-04-29T08:44:12.797Z,11.40
2023-04-29T08:46:40.024Z,11.50
2023-04-29T08:49:07.633Z,11.60
2023-04-29T08:51:35.177Z,11.80
2023-04-29T08:54:02.090Z,11.80
2023-04-29T08:56:31.721Z,11.90
2023-04-29T08:58:59.594Z,12.00
2023-04-29T09:01:30.016Z,12.20
2023-04-29T09:04:14.010Z,12.10
2023-04-29T09:06:40.955Z,12.30
2023-04-29T09:09:08.513Z,12.20
2023-04-29T09:11:37.192Z,12.10
2023-04-29T09:14:08.248Z,12.30
2023-04-29T09:16:37.593Z,12.50
2023-04-29T09:19:04.527Z,12.60
2023-04-29T09:21:34.409Z,12.50
2023-04-29T09:24:02.979Z,12.30
2023-04-29T09:26:43.572Z,12.60
2023-04-29T09:29:14.394Z,12.60
2023-04-29T09:31:42.267Z,12.90
2023-04-29T09:34:12.059Z,13.00
2023-04-29T09:36:39.064Z,13.10
2023-04-29T09:39:11.580Z,13.00
2023-04-29T09:41:43.837Z,13.00
2023-04-29T09:44:11.265Z,13.40
2023-04-29T09:46:38.853Z,13.40
2023-04-29T09:49:26.268Z,13.70
2023-04-29T09:51:54.149Z,13.30
2023-04-29T09:54:22.744Z,13.40
2023-04-29T09:56:53.632Z,13.60
2023-04-29T09:59:21.298Z,13.70
2023-04-29T10:01:53.199Z,13.80
2023-04-29T10:04:21.829Z,13.80
2023-04-29T10:06:53.595Z,13.90
2023-04-29T10:09:22.426Z,14.00
2023-04-29T10:11:51.057Z,13.80
2023-04-29T10:14:20.190Z,13.70
2023-04-29T10:16:54.527Z,13.70
2023-04-29T10:19:52.637Z,13.50
2023-04-29T10:22:51.083Z,13.30
2023-04-29T10:25:20.109Z,13.50
2023-04-29T10:27:48.920Z,13.70
2023-04-29T10:30:18.653Z,13.60
2023-04-29T10:32:51.013Z,14.00
2023-04-29T10:35:22.296Z,14.50
2023-04-29T10:37:49.785Z,14.10
2023-04-29T10:40:29.993Z,13.70
2023-04-29T10:42:57.502Z,13.40
2023-04-29T10:45:24.417Z,13.50
2023-04-29T10:48:05.881Z,13.70
2023-04-29T10:50:33.985Z,13.60
2023-04-29T10:53:06.673Z,13.70
2023-04-29T10:55:38.045Z,13.90
2023-04-29T10:58:05.796Z,13.90
2023-04-29T11:00:39.147Z,13.90
2023-04-29T11:03:06.661Z,14.10
2023-04-29T11:05:35.827Z,13.90
2023-04-29T11:08:23.523Z,14.00
2023-04-29T11:11:04.903Z,14.10
2023-04-29T11:13:33.971Z,14.10
2023-04-29T11:16:08.749Z,14.00
2023-04-29T11:18:37.569Z,14.20
2023-04-29T11:21:07.921Z,14.30
2023-04-29T11:23:39.498Z,14.20
2023-04-29T11:26:06.390Z,14.20
2023-04-29T11:28:34.102Z,14.20
2023-04-29T11:31:03.082Z,14.30
2023-04-29T11:33:33.428Z,14.10
2023-04-29T11:36:00.937Z,14.10
2023-04-29T11:38:31.663Z,13.80
2023-04-29T11:41:00.160Z,13.70
2023-04-29T11:43:27.075Z,14.00
2023-04-29T11:45:54.639Z,14.10
2023-04-29T11:48:23.534Z,14.20
2023-04-29T11:50:53.570Z,13.70
2023-04-29T11:53:22.285Z,13.60
2023-04-29T11:55:49.153Z,13.90
2023-04-29T11:58:16.700Z,14.30
2023-04-29T12:00:45.016Z,14.90
2023-04-29T12:03:19.648Z,15.10
2023-04-29T12:05:49.474Z,15.00
2023-04-29T12:08:23.654Z,15.00
2023-04-29T12:10:51.950Z,14.80
2023-04-29T12:13:20.336Z,15.00
2023-04-29T12:15:49.148Z,14.80
2023-04-29T12:18:18.200Z,14.50
2023-04-29T12:20:46.157Z,14.50
2023-04-29T12:23:13.370Z,14.20
2023-04-29T12:25:41.544Z,14.60
2023-04-29T12:28:14.789Z,14.70
2023-04-29T12:30:43.885Z,14.50
2023-04-29T12:33:11.109Z,14.50
2023-04-29T12:35:37.954Z,14.60
2023-04-29T12:38:05.094Z,14.50
2023-04-29T12:40:33.148Z,14.40
2023-04-29T12:43:07.652Z,14.50
2023-04-29T12:45:34.794Z,14.40
2023-04-29T12:48:03.221Z,14.30
2023-04-29T12:50:36.016Z,14.30
2023-04-29T12:53:05.063Z,14.10
2023-04-29T12:55:34.659Z,14.20
2023-04-29T12:58:06.180Z,14.30
2023-04-29T13:00:35.053Z,14.20
2023-04-29T13:03:02.327Z,14.10
2023-04-29T13:05:29.674Z,14.30
2023-04-29T13:07:57.013Z,14.60
2023-04-29T13:10:23.908Z,14.30
2023-04-29T13:12:50.915Z,14.30
2023-04-29T13:15:18.276Z,14.20
2023-04-29T13:17:45.895Z,14.30
2023-04-29T13:20:13.329Z,14.10
2023-04-29T13:22:40.185Z,13.80
2023-04-29T13:25:07.525Z,13.70
2023-04-29T13:27:35.014Z,13.90
2023-04-29T13:30:02.722Z,13.80
2023-04-29T13:32:43.074Z,13.90
2023-04-29T13:35:12.223Z,13.90
2023-04-29T13:37:39.152Z,13.90
2023-04-29T13:40:08.250Z,14.10
2023-04-29T13:42:42.209Z,14.20
2023-04-29T13:45:16.208Z,14.30
2023-04-29T13:48:03.173Z,14.50
2023-04-29T13:53:35.501Z,14.60
2023-04-29T14:03:19.176Z,13.90
2023-04-29T14:05:46.326Z,13.80
2023-04-29T14:08:14.196Z,13.80
2023-04-29T14:10:41.498Z,13.80
2023-04-29T14:13:08.387Z,14.00
2023-04-29T14:15:35.606Z,14.10
2023-04-29T14:18:03.441Z,14.10
2023-04-29T14:20:30.509Z,14.30
2023-04-29T14:22:57.271Z,14.50
2023-04-29T14:25:26.590Z,14.70
2023-04-29T14:27:54.154Z,14.70
2023-04-29T14:30:21.612Z,14.70
2023-04-29T14:32:49.041Z,14.80
2023-04-29T14:35:16.179Z,14.60
2023-04-29T14:37:43.143Z,14.70
2023-04-29T14:40:10.395Z,14.60
2023-04-29T14:42:37.253Z,14.80
2023-04-29T14:45:04.585Z,15.10
2023-04-29T14:47:31.781Z,15.10
2023-04-29T14:49:58.599Z,15.10
2023-04-29T14:52:25.653Z,15.00
2023-04-29T14:54:52.994Z,15.10
2023-04-29T14:57:20.025Z,15.10
2023-04-29T14:59:46.815Z,15.00
2023-04-29T15:02:13.917Z,14.80
2023-04-29T15:04:45.692Z,14.70
2023-04-29T15:07:16.711Z,14.80
2023-04-29T15:09:43.707Z,14.70
2023-04-29T15:12:10.565Z,14.80
2023-04-29T15:14:37.555Z,14.80
2023-04-29T15:17:04.488Z,14.80
2023-04-29T15:19:31.344Z,14.70
2023-04-29T15:21:58.384Z,14.80
2023-04-29T15:24:25.394Z,14.60
2023-04-29T15:26:53.287Z,14.50
2023-04-29T15:29:20.411Z,14.40
2023-04-29T15:31:47.746Z,14.50
2023-04-29T15:34:14.722Z,14.30
2023-04-29T15:36:42.473Z,14.20
2023-04-29T15:39:11.386Z,14.20
2023-04-29T15:41:39.135Z,14.30
2023-04-29T15:44:06.921Z,14.50
2023-04-29T15:46:33.896Z,14.40
2023-04-29T15:49:01.128Z,14.40
2023-04-29T15:51:28.121Z,14.50
2023-04-29T15:53:55.030Z,14.50
2023-04-29T15:56:21.942Z,14.50
2023-04-29T15:58:48.790Z,14.70
2023-04-29T16:01:15.960Z,14.80
2023-04-29T16:03:43.453Z,14.70
2023-04-29T16:06:10.696Z,14.80
2023-04-29T16:08:37.530Z,14.70
2023-04-29T16:11:04.635Z,14.70
2023-04-29T16:13:31.449Z,14.70
2023-04-29T16:15:58.412Z,14.50
2023-04-29T16:18:25.410Z,14.40
2023-04-29T16:20:52.684Z,14.30
2023-04-29T16:23:19.624Z,14.30
2023-04-29T16:25:46.853Z,14.20
2023-04-29T16:28:13.601Z,14.10
2023-04-29T16:30:40.421Z,14.00
2023-04-29T16:33:07.553Z,14.00
2023-04-29T16:35:34.477Z,13.90
2023-04-29T16:38:01.402Z,14.00
2023-04-29T16:40:29.825Z,14.00
2023-04-29T16:42:57.856Z,13.90
2023-04-29T16:45:26.072Z,13.90
2023-04-29T16:47:54.556Z,13.90
2023-04-29T16:50:21.737Z,13.90
2023-04-29T16:52:48.832Z,13.90
2023-04-29T16:55:15.719Z,13.80
2023-04-29T16:57:42.642Z,13.80
2023-04-29T17:00:13.335Z,13.80
2023-04-29T17:02:43.334Z,13.80
2023-04-29T17:05:11.021Z,13.80
2023-04-29T17:07:38.311Z,13.80
2023-04-29T17:10:06.454Z,13.80
2023-04-29T17:12:33.652Z,13.80
2023-04-29T17:15:01.158Z,13.70
2023-04-29T17:17:28.143Z,13.70
2023-04-29T17:19:55.570Z,13.70
2023-04-29T17:22:23.244Z,13.70
2023-04-29T17:24:50.847Z,13.60
2023-04-29T17:27:18.156Z,13.60
2023-04-29T17:29:45.461Z,13.60
2023-04-29T17:32:15.236Z,13.60
2023-04-29T17:34:42.299Z,13.60
2023-04-29T17:37:09.674Z,13.50
2023-04-29T17:39:36.573Z,13.60
2023-04-29T17:42:03.646Z,13.50
2023-04-29T17:44:30.736Z,13.50
2023-04-29T17:46:57.520Z,13.50
2023-04-29T17:49:24.982Z,13.50
2023-04-29T17:51:51.967Z,13.40
2023-04-29T17:54:18.825Z,13.40
2023-04-29T17:56:45.627Z,13.30
2023-04-29T17:59:12.680Z,13.20
2023-04-29T18:01:39.818Z,13.20
2023-04-29T18:04:06.742Z,13.10
2023-04-29T18:06:33.951Z,13.10
2023-04-29T18:09:00.935Z,13.10
2023-04-29T18:11:28.093Z,13.10
2023-04-29T18:13:55.259Z,13.00
2023-04-29T18:16:22.312Z,12.90
2023-04-29T18:18:54.521Z,12.90
2023-04-29T18:21:23.979Z,12.80
2023-04-29T18:23:50.920Z,12.80
2023-04-29T18:26:18.148Z,12.90
2023-04-29T18:28:46.757Z,12.90
2023-04-29T18:31:18.025Z,13.00
2023-04-29T18:33:45.345Z,12.90
2023-04-29T18:36:14.292Z,12.80
2023-04-29T18:38:41.923Z,12.80
2023-04-29T18:41:09.138Z,12.80
2023-04-29T18:43:37.219Z,12.70
2023-04-29T18:46:04.422Z,12.60
2023-04-29T18:48:31.562Z,12.60
2023-04-29T18:51:00.430Z,12.40
2023-04-29T18:53:27.408Z,12.40
2023-04-29T18:55:54.486Z,12.20
2023-04-29T18:58:21.737Z,12.10
2023-04-29T19:00:48.839Z,12.10
2023-04-29T19:03:15.775Z,12.10
2023-04-29T19:05:43.567Z,12.00
2023-04-29T19:08:10.734Z,11.90
2023-04-29T19:10:37.666Z,11.80
2023-04-29T19:13:05.040Z,11.60
2023-04-29T19:15:32.108Z,11.50
2023-04-29T19:20:33.637Z,11.40
2023-04-29T19:23:00.919Z,11.40
2023-04-29T19:25:27.908Z,11.40
2023-04-29T19:27:55.772Z,11.30
2023-04-29T19:30:23.341Z,11.10
2023-04-29T19:32:50.954Z,11.10
2023-04-29T19:35:18.269Z,10.90
2023-04-29T19:37:45.829Z,10.90
2023-04-29T19:40:12.988Z,10.90
2023-04-29T19:42:40.142Z,10.80
2023-04-29T19:45:08.208Z,10.70
2023-04-29T19:47:35.755Z,10.70
2023-04-29T19:50:03.359Z,10.60
2023-04-29T19:52:30.207Z,10.60
2023-04-29T19:54:57.434Z,10.60
2023-04-29T19:57:25.057Z,10.50
2023-04-29T19:59:52.169Z,10.30
2023-04-29T20:02:19.913Z,10.40
2023-04-29T20:04:46.845Z,10.40
2023-04-29T20:07:13.673Z,10.50
2023-04-29T20:09:40.752Z,10.40
2023-04-29T20:12:07.585Z,10.40
2023-04-29T20:14:34.344Z,10.40
2023-04-29T20:17:01.622Z,10.40
2023-04-29T20:19:28.754Z,10.30
2023-04-29T20:21:56.043Z,10.40
2023-04-29T20:24:23.110Z,10.40
2023-04-29T20:26:49.891Z,10.40
2023-04-29T20:29:16.726Z,10.30
2023-04-29T20:31:44.428Z,10.30
2023-04-29T20:34:12.791Z,10.30
2023-04-29T20:36:39.755Z,10.20
2023-04-29T20:39:06.972Z,10.20
2023-04-29T20:41:33.939Z,10.10
2023-04-29T20:44:00.754Z,10.00
2023-04-29T20:46:28.043Z,9.90
2023-04-29T20:48:54.873Z,9.80
2023-04-29T20:51:21.789Z,9.70
2023-04-29T20:53:49.354Z,9.70
2023-04-29T20:56:16.238Z,9.60
2023-04-29T20:58:43.177Z,9.60
2023-04-29T21:01:10.362Z,9.50
2023-04-29T21:03:37.568Z,9.50
2023-04-29T21:06:04.529Z,9.30
2023-04-29T21:08:32.097Z,9.30
2023-04-29T21:10:59.115Z,9.30
2023-04-29T21:13:26.112Z,9.20
2023-04-29T21:15:53.235Z,9.10
2023-04-29T21:18:20.117Z,9.10
2023-04-29T21:20:47.033Z,9.10
2023-04-29T21:23:14.058Z,9.00
2023-04-29T21:25:41.019Z,9.00
2023-04-29T21:28:07.835Z,8.90
2023-04-29T21:30:34.875Z,8.90
2023-04-29T21:33:02.890Z,8.90
2023-04-29T21:35:30.589Z,8.80
2023-04-29T21:37:57.670Z,8.80
2023-04-29T21:40:26.500Z,8.80
2023-04-29T21:42:55.339Z,8.80
2023-04-29T21:45:22.738Z,8.80
2023-04-29T21:47:50.714Z,8.80
2023-04-29T21:50:17.845Z,8.80
2023-04-29T21:52:45.041Z,8.80
2023-04-29T21:55:11.899Z,8.80
2023-04-29T21:57:44.082Z,8.80
2023-04-29T22:00:33.944Z,8.80
2023-04-29T22:03:02.053Z,8.80
2023-04-29T22:05:32.041Z,8.70
2023-04-29T22:08:00.338Z,8.60
2023-04-29T22:10:27.827Z,8.60
2023-04-29T22:12:55.568Z,8.50
2023-04-29T22:15:28.647Z,8.50
2023-04-29T22:17:57.348Z,8.40
2023-04-29T22:20:25.040Z,8.40
2023-04-29T22:22:52.328Z,8.40
2023-04-29T22:25:22.353Z,8.30
2023-04-29T22:27:50.411Z,8.30
2023-04-29T22:30:21.003Z,8.20
2023-04-29T22:32:47.929Z,8.20
2023-04-29T22:35:16.472Z,8.10
2023-04-29T22:37:43.458Z,8.10
2023-04-29T22:40:11.902Z,8.10
2023-04-29T22:42:39.680Z,8.00
2023-04-29T22:45:07.486Z,8.00
2023-04-29T22:47:34.469Z,8.00
2023-04-29T22:50:01.595Z,8.00
2023-04-29T22:52:28.577Z,8.00
2023-04-29T22:54:55.686Z,7.90
2023-04-29T22:57:22.880Z,7.90
2023-04-29T22:59:57.049Z,7.80
2023-04-29T23:02:27.689Z,7.80
2023-04-29T23:04:59.326Z,7.80
2023-04-29T23:07:26.624Z,7.70
2023-04-29T23:09:53.720Z,7.80
2023-04-29T23:12:21.283Z,7.80
2023-04-29T23:14:51.096Z,7.80
2023-04-29T23:17:18.378Z,7.70
2023-04-29T23:19:45.732Z,7.70
2023-04-29T23:22:12.542Z,7.60
2023-04-29T23:24:40.484Z,7.60
2023-04-29T23:27:08.006Z,7.50
2023-04-29T23:29:35.203Z,7.60
2023-04-29T23:32:02.210Z,7.50
2023-04-29T23:34:29.308Z,7.40
2023-04-29T23:36:56.433Z,7.40
2023-04-29T23:39:23.778Z,7.50
2023-04-29T23:41:52.185Z,7.40
2023-04-29T23:44:19.661Z,7.50
2023-04-29T23:46:46.884Z,7.30
2023-04-29T23:49:13.697Z,7.30
2023-04-29T23:51:40.977Z,7.40
2023-04-29T23:54:08.480Z,7.30
2023-04-29T23:56:35.287Z,7.30
2023-04-29T23:59:02.049Z,7.40
